Alpnach Air Base

Airport
ICAO code: 
LSMA
Summary
ICAO Region: 
EUR
Territory: 
Location: 
Alpnach, Obwalden
Serving: 
Alpnach
Elevation: 
1460 ft
Coordinates: 
Aerial View: 
46° 56' 38" N, 8° 17' 3.001" E
Metar
Observation
LSMA 050850Z AUTO 27003KT 9999NDV -SHRA FEW024 SCT039 OVC058 00/M01 Q1005 RMK
Station
ALPNACH
Date/Time
2021-12-05 08:50:00
Wind direction
270°
Wind speed
03 kts
Lowest cloud amount
few clouds
Temperature
0°C
Dew point
-1°C
Humidity
92%
QNH
1005 hPa
Weather condition
n/a

Military airbase outside Alpnach, Switzerland.

Climatology

Humid continental climate (Köppen climate classification Dfb)

Runways

Designator Length Width Surface Rops
1/19 1500 40 ASP No/No
Airport map: 
Aerial View: 

SKYbrary Partners:

Safety knowledge contributed by: